Time;durP1;ratioP1;P1;durP2;ratioP2;P2;SDS_P1;SDS_P2;PMS_P1;PMS_P2;Temp;Humidity;BMP_temperature;BMP_pressure;BME280_temperature;BME280_humidity;BME280_pressure;Samples;Min_cycle;Max_cycle;Signal;HPM_P1;HPM_P2
2021/09/29 00:02:17;;;;;;;3.47;3.03;;;15.20;99.90;;;;;;5035149;28;20168;-80
2021/09/29 00:04:42;;;;;;;4.95;3.10;;;15.20;99.90;;;;;;5035064;28;20528;-79
2021/09/29 00:07:08;;;;;;;6.10;2.75;;;15.30;99.90;;;;;;5033936;28;20179;-81
2021/09/29 00:09:34;;;;;;;8.80;3.30;;;15.30;99.90;;;;;;5035124;28;20261;-79
2021/09/29 00:12:00;;;;;;;9.10;3.08;;;15.40;99.90;;;;;;5035202;28;20682;-77
2021/09/29 00:14:26;;;;;;;4.03;2.45;;;15.30;99.90;;;;;;5034835;28;20204;-82
2021/09/29 00:16:52;;;;;;;5.53;3.25;;;15.10;99.90;;;;;;5034880;28;20167;-79
2021/09/29 00:19:17;;;;;;;10.05;2.85;;;15.20;99.90;;;;;;5035407;28;20195;-79
2021/09/29 00:21:43;;;;;;;5.07;2.80;;;15.10;99.90;;;;;;5034918;28;20250;-81
2021/09/29 00:24:09;;;;;;;5.05;2.78;;;15.10;99.90;;;;;;5034970;28;20168;-78
2021/09/29 00:26:34;;;;;;;8.80;3.03;;;15.10;99.90;;;;;;5034799;28;20160;-80
2021/09/29 00:29:00;;;;;;;8.50;3.30;;;15.30;99.90;;;;;;5033569;28;20215;-81
2021/09/29 00:31:36;;;;;;;8.40;2.70;;;15.30;99.90;;;;;;5034557;28;20680;-78
2021/09/29 00:34:14;;;;;;;7.50;2.58;;;15.20;99.90;;;;;;5034232;28;20302;-81
2021/09/29 00:36:45;;;;;;;4.63;2.55;;;15.20;99.90;;;;;;5034873;28;20258;-80
2021/09/29 00:39:13;;;;;;;8.25;3.58;;;15.20;99.90;;;;;;5034581;28;20198;-83
2021/09/29 00:41:41;;;;;;;5.63;2.42;;;15.40;99.90;;;;;;5033262;28;20217;-78
2021/09/29 00:44:07;;;;;;;3.85;2.75;;;15.50;99.90;;;;;;5034171;28;20168;-80
2021/09/29 00:46:33;;;;;;;11.18;2.42;;;15.40;99.90;;;;;;5034061;28;20175;-80
2021/09/29 00:48:59;;;;;;;7.40;2.35;;;15.40;99.90;;;;;;5035088;28;20191;-80
2021/09/29 00:51:45;;;;;;;8.15;2.38;;;15.30;99.90;;;;;;5033553;28;20188;-78
2021/09/29 00:54:10;;;;;;;5.75;2.40;;;15.30;99.90;;;;;;5034495;28;20207;-80
2021/09/29 00:56:37;;;;;;;5.88;2.72;;;15.30;99.90;;;;;;5034615;28;20621;-83
2021/09/29 00:59:04;;;;;;;2.10;1.80;;;15.30;99.90;;;;;;5034701;28;20195;-81
2021/09/29 01:01:30;;;;;;;4.40;2.50;;;15.30;99.90;;;;;;5034445;28;20163;-79
2021/09/29 01:03:57;;;;;;;7.93;2.30;;;15.20;99.90;;;;;;5034383;28;20195;-78
2021/09/29 01:06:36;;;;;;;7.05;2.45;;;15.30;99.90;;;;;;5034091;28;20508;-77
2021/09/29 01:09:31;;;;;;;6.75;2.15;;;15.30;99.90;;;;;;5033419;28;20274;-77
2021/09/29 01:12:09;;;;;;;4.25;2.30;;;15.40;99.90;;;;;;5027081;28;20180;-79
2021/09/29 01:14:51;;;;;;;5.95;2.13;;;15.20;99.90;;;;;;5033313;28;20355;-79
2021/09/29 01:17:18;;;;;;;4.40;2.35;;;15.10;99.90;;;;;;5033197;28;20674;-77
2021/09/29 01:20:01;;;;;;;3.53;2.05;;;15.10;99.90;;;;;;5032975;28;20645;-77
2021/09/29 01:23:04;;;;;;;4.45;1.73;;;15.20;99.90;;;;;;5033262;28;20580;-79
2021/09/29 01:25:35;;;;;;;4.07;2.50;;;15.30;99.90;;;;;;5033172;28;20297;-77
2021/09/29 01:28:01;;;;;;;3.05;1.73;;;15.30;99.90;;;;;;5033019;28;20219;-79
2021/09/29 01:30:31;;;;;;;5.15;1.90;;;15.30;99.90;;;;;;5033132;28;20234;-83
2021/09/29 01:32:56;;;;;;;3.88;1.80;;;15.30;99.90;;;;;;5032959;28;20208;-82
2021/09/29 01:35:22;;;;;;;7.88;2.28;;;15.20;99.90;;;;;;5033490;28;20563;-80
2021/09/29 01:37:48;;;;;;;5.78;2.10;;;15.10;99.90;;;;;;5033311;28;20302;-84
2021/09/29 01:40:14;;;;;;;7.00;2.22;;;15.10;99.90;;;;;;5031532;28;20282;-80
2021/09/29 01:42:41;;;;;;;4.20;2.20;;;15.10;99.90;;;;;;5032732;28;20196;-83
2021/09/29 01:45:07;;;;;;;6.95;2.20;;;15.00;99.90;;;;;;5032985;28;20171;-83
2021/09/29 01:47:33;;;;;;;6.05;1.95;;;15.30;99.90;;;;;;5033198;28;20207;-79
2021/09/29 01:50:00;;;;;;;2.63;1.88;;;15.20;99.90;;;;;;5033561;28;20578;-83
2021/09/29 01:52:29;;;;;;;6.50;2.10;;;15.20;99.90;;;;;;5031658;28;20652;-81
2021/09/29 01:54:55;;;;;;;6.30;1.85;;;15.30;99.90;;;;;;5033412;28;20207;-82
2021/09/29 01:57:22;;;;;;;5.05;1.63;;;15.30;99.90;;;;;;5033151;28;20194;-76
2021/09/29 01:59:49;;;;;;;3.92;2.03;;;15.10;99.90;;;;;;5031731;28;20208;-78
2021/09/29 02:02:15;;;;;;;5.88;1.55;;;15.20;99.90;;;;;;5033236;28;20170;-80
2021/09/29 02:04:45;;;;;;;4.72;1.92;;;15.20;99.90;;;;;;5032014;28;20175;-79
2021/09/29 02:07:10;;;;;;;2.30;1.58;;;15.20;99.90;;;;;;5033117;28;20543;-77
2021/09/29 02:09:36;;;;;;;9.52;1.38;;;15.00;99.90;;;;;;5033645;28;20180;-78
2021/09/29 02:12:02;;;;;;;3.28;1.45;;;15.10;99.90;;;;;;5033463;28;20175;-79
2021/09/29 02:14:28;;;;;;;2.40;1.30;;;15.10;99.90;;;;;;5033120;28;20204;-80
2021/09/29 02:16:55;;;;;;;5.80;1.30;;;15.10;99.90;;;;;;5032953;28;20174;-82
2021/09/29 02:19:21;;;;;;;4.50;1.75;;;15.30;99.90;;;;;;5032989;28;20552;-82
2021/09/29 02:21:47;;;;;;;2.08;1.50;;;15.20;99.90;;;;;;5033193;28;20164;-77
2021/09/29 02:24:14;;;;;;;1.77;1.20;;;15.20;99.90;;;;;;5033762;28;20628;-80
2021/09/29 02:26:42;;;;;;;7.70;1.52;;;15.20;99.90;;;;;;5033328;28;20259;-77
2021/09/29 02:29:09;;;;;;;3.60;1.33;;;15.20;99.90;;;;;;5033044;28;20663;-81
2021/09/29 02:31:35;;;;;;;5.07;1.30;;;15.40;99.90;;;;;;5032530;28;20167;-80
2021/09/29 02:34:01;;;;;;;7.22;1.70;;;15.40;99.90;;;;;;5032747;28;20235;-79
2021/09/29 02:36:27;;;;;;;8.68;1.73;;;15.50;99.90;;;;;;5032566;28;20255;-81
2021/09/29 02:38:52;;;;;;;3.88;1.10;;;15.50;99.90;;;;;;5040066;28;20190;-80
2021/09/29 02:41:20;;;;;;;4.78;1.45;;;15.30;99.90;;;;;;5041505;28;20176;-78
2021/09/29 02:43:45;;;;;;;7.22;1.13;;;15.40;99.90;;;;;;5040790;28;20655;-77
2021/09/29 02:46:11;;;;;;;6.45;1.45;;;15.20;99.90;;;;;;5040792;28;20168;-79
2021/09/29 02:48:37;;;;;;;3.88;1.15;;;15.20;99.90;;;;;;5044586;28;20202;-78
2021/09/29 02:51:03;;;;;;;3.63;1.15;;;15.20;99.90;;;;;;5054036;28;20168;-78
2021/09/29 02:53:29;;;;;;;4.75;1.38;;;15.30;99.90;;;;;;5055051;28;20200;-78
2021/09/29 02:55:59;;;;;;;4.72;0.90;;;15.20;99.90;;;;;;5053819;28;20219;-77
2021/09/29 02:58:26;;;;;;;2.17;1.10;;;15.30;99.90;;;;;;5052848;28;20221;-77
2021/09/29 03:00:53;;;;;;;3.85;1.50;;;15.30;99.90;;;;;;5037477;28;20232;-81
2021/09/29 03:03:20;;;;;;;1.90;1.40;;;15.20;99.90;;;;;;5032465;28;20171;-80
2021/09/29 03:05:46;;;;;;;5.82;2.50;;;15.30;99.90;;;;;;5032939;28;20271;-81
2021/09/29 03:08:12;;;;;;;20.95;1.25;;;15.30;99.90;;;;;;5031114;28;20168;-79
2021/09/29 03:10:40;;;;;;;3.58;1.10;;;15.30;99.90;;;;;;5032502;28;20172;-77
2021/09/29 03:13:06;;;;;;;3.15;1.17;;;15.20;99.90;;;;;;5032066;28;20266;-81
2021/09/29 03:15:32;;;;;;;4.70;1.15;;;15.30;99.90;;;;;;5032311;28;20172;-81
2021/09/29 03:17:58;;;;;;;2.50;1.92;;;15.10;99.90;;;;;;5031972;28;20226;-76
2021/09/29 03:20:26;;;;;;;4.70;1.42;;;15.10;99.90;;;;;;5032385;28;20179;-78
2021/09/29 03:22:53;;;;;;;6.15;1.23;;;14.90;99.90;;;;;;5032331;28;20226;-78
2021/09/29 03:25:19;;;;;;;1.92;1.08;;;14.80;99.90;;;;;;5031903;28;20632;-80
2021/09/29 03:27:45;;;;;;;2.50;0.82;;;15.00;99.90;;;;;;5030685;28;20230;-81
2021/09/29 03:30:11;;;;;;;2.95;1.35;;;14.80;99.90;;;;;;5034421;28;20184;-81
2021/09/29 03:32:37;;;;;;;2.85;1.38;;;14.70;99.90;;;;;;5035284;28;20551;-77
2021/09/29 03:35:03;;;;;;;13.00;1.48;;;14.60;99.90;;;;;;5035240;28;20172;-79
2021/09/29 03:37:28;;;;;;;6.70;1.67;;;14.50;99.90;;;;;;5035262;28;20167;-78
2021/09/29 03:39:54;;;;;;;8.38;1.33;;;14.50;99.90;;;;;;5033647;28;20283;-81
2021/09/29 03:42:20;;;;;;;4.60;1.10;;;14.60;99.90;;;;;;5035467;28;20172;-79
2021/09/29 03:44:45;;;;;;;6.47;1.45;;;14.50;99.90;;;;;;5035307;28;20196;-82
2021/09/29 03:47:11;;;;;;;5.95;1.02;;;14.30;99.90;;;;;;5035391;28;20180;-81
2021/09/29 03:49:37;;;;;;;4.70;1.52;;;14.40;99.90;;;;;;5034933;28;20184;-80
2021/09/29 03:52:02;;;;;;;2.78;1.17;;;14.50;99.90;;;;;;5033715;28;20638;-81
2021/09/29 03:54:28;;;;;;;1.52;0.98;;;14.40;99.90;;;;;;5035012;28;20207;-80
2021/09/29 03:56:54;;;;;;;5.00;1.52;;;14.50;99.90;;;;;;5035223;28;20160;-81
2021/09/29 03:59:19;;;;;;;10.63;1.52;;;14.60;99.90;;;;;;5034985;28;20191;-80
2021/09/29 04:01:46;;;;;;;7.28;1.80;;;14.60;99.90;;;;;;5034874;28;20243;-80
2021/09/29 04:04:12;;;;;;;8.85;1.30;;;14.70;99.90;;;;;;5034896;28;20164;-80
2021/09/29 04:06:37;;;;;;;2.13;1.33;;;14.60;99.90;;;;;;5034747;28;20172;-81
2021/09/29 04:09:03;;;;;;;8.70;1.55;;;14.50;99.90;;;;;;5034503;28;20195;-78
2021/09/29 04:11:29;;;;;;;2.20;1.20;;;14.60;99.90;;;;;;5034630;28;20179;-80
2021/09/29 04:13:55;;;;;;;4.22;1.40;;;14.60;99.90;;;;;;5035108;28;20223;-79
2021/09/29 04:16:21;;;;;;;2.67;1.30;;;14.50;99.90;;;;;;5034801;28;20214;-83
2021/09/29 04:18:46;;;;;;;2.75;1.70;;;14.60;99.90;;;;;;5034612;28;20188;-81
2021/09/29 04:21:12;;;;;;;10.07;1.63;;;14.60;99.90;;;;;;5034401;28;20167;-78
2021/09/29 04:23:39;;;;;;;8.70;1.55;;;14.70;99.90;;;;;;5034384;28;20186;-82
2021/09/29 04:26:06;;;;;;;6.00;1.27;;;14.90;99.90;;;;;;5034642;28;20182;-81
2021/09/29 04:28:31;;;;;;;6.85;1.83;;;15.00;99.90;;;;;;5034199;28;20246;-79
2021/09/29 04:30:57;;;;;;;9.10;1.80;;;15.10;99.90;;;;;;5034273;28;20693;-82
2021/09/29 04:33:23;;;;;;;2.85;1.88;;;15.00;99.90;;;;;;5034267;28;20753;-78
2021/09/29 04:35:49;;;;;;;6.00;1.65;;;15.00;99.90;;;;;;5034418;28;20183;-81
2021/09/29 04:38:14;;;;;;;5.55;1.88;;;14.90;99.90;;;;;;5034253;28;20198;-81
2021/09/29 04:40:40;;;;;;;2.92;1.17;;;14.90;99.90;;;;;;5034043;28;20176;-79
2021/09/29 04:43:06;;;;;;;10.32;1.60;;;14.70;99.90;;;;;;5034153;28;20160;-81
2021/09/29 04:45:32;;;;;;;4.53;1.42;;;14.60;99.90;;;;;;5034039;28;20183;-80
2021/09/29 04:47:57;;;;;;;3.70;1.40;;;14.70;99.90;;;;;;5034027;28;20592;-77
2021/09/29 04:50:23;;;;;;;7.05;1.60;;;14.70;99.90;;;;;;5035739;28;20183;-78
2021/09/29 04:52:49;;;;;;;8.07;1.60;;;14.70;99.90;;;;;;5033237;28;20182;-78
2021/09/29 04:55:15;;;;;;;1.27;0.93;;;14.80;99.90;;;;;;5034316;28;20176;-78
2021/09/29 04:57:40;;;;;;;2.92;1.40;;;14.80;99.90;;;;;;5034121;28;20536;-77
2021/09/29 05:00:06;;;;;;;7.85;1.27;;;14.70;99.90;;;;;;5034002;28;20242;-78
2021/09/29 05:02:33;;;;;;;9.75;1.20;;;14.70;99.90;;;;;;5033875;28;20170;-78
2021/09/29 05:04:58;;;;;;;5.70;1.92;;;14.70;99.90;;;;;;5033575;28;20172;-80
2021/09/29 05:07:24;;;;;;;8.00;0.93;;;14.70;99.90;;;;;;5033514;28;20176;-80
2021/09/29 05:09:50;;;;;;;1.33;0.90;;;14.60;99.90;;;;;;5033113;28;20246;-81
2021/09/29 05:12:16;;;;;;;6.60;1.05;;;14.70;99.90;;;;;;5033191;28;20674;-78
2021/09/29 05:14:41;;;;;;;2.13;1.20;;;14.70;99.90;;;;;;5033606;28;20235;-78
2021/09/29 05:17:07;;;;;;;2.70;1.17;;;14.60;99.90;;;;;;5033669;28;20168;-79
2021/09/29 05:19:33;;;;;;;7.28;1.10;;;14.50;99.90;;;;;;5033490;28;20191;-82
2021/09/29 05:21:58;;;;;;;10.90;1.70;;;14.60;99.90;;;;;;5033190;28;20160;-81
2021/09/29 05:24:24;;;;;;;3.80;0.98;;;14.60;99.90;;;;;;5033318;28;20246;-79
2021/09/29 05:26:50;;;;;;;6.13;1.42;;;14.50;99.90;;;;;;5033425;28;20172;-82
2021/09/29 05:29:18;;;;;;;5.63;1.75;;;14.50;99.90;;;;;;5032820;28;20259;-80
2021/09/29 05:31:44;;;;;;;5.57;1.63;;;14.40;99.90;;;;;;5033362;28;20167;-81
2021/09/29 05:34:09;;;;;;;4.90;1.20;;;14.50;99.90;;;;;;5032737;28;20203;-83
2021/09/29 05:36:35;;;;;;;6.75;1.40;;;14.40;99.90;;;;;;5033447;28;20172;-80
2021/09/29 05:39:01;;;;;;;6.85;1.20;;;14.40;99.90;;;;;;5033125;28;20200;-78
2021/09/29 05:41:27;;;;;;;3.65;1.38;;;14.40;99.90;;;;;;5032452;28;20167;-79
2021/09/29 05:43:52;;;;;;;3.95;1.25;;;14.30;99.90;;;;;;5033827;28;20206;-79
2021/09/29 05:46:18;;;;;;;3.17;0.95;;;14.40;99.90;;;;;;5032846;28;20160;-82
2021/09/29 05:48:44;;;;;;;2.30;1.23;;;14.40;99.90;;;;;;5032818;28;20611;-80
2021/09/29 05:51:09;;;;;;;2.97;1.48;;;14.30;99.90;;;;;;5032589;28;20173;-80
2021/09/29 05:53:35;;;;;;;5.20;1.20;;;14.40;99.90;;;;;;5032798;28;20207;-81
2021/09/29 05:56:01;;;;;;;0.68;0.60;;;14.40;99.90;;;;;;5032619;28;20167;-80
2021/09/29 05:58:26;;;;;;;1.60;0.88;;;14.50;99.90;;;;;;5032257;28;20729;-82
2021/09/29 06:00:52;;;;;;;4.03;0.68;;;14.50;99.90;;;;;;5032470;28;20642;-79
2021/09/29 06:03:20;;;;;;;0.85;0.70;;;14.40;99.90;;;;;;5032645;28;20175;-79
2021/09/29 06:05:46;;;;;;;1.08;0.57;;;14.50;99.90;;;;;;5030927;28;20582;-78
2021/09/29 06:08:12;;;;;;;1.58;0.68;;;14.50;99.90;;;;;;5032207;28;20183;-80
2021/09/29 06:10:38;;;;;;;0.95;0.70;;;14.60;99.90;;;;;;5032393;28;20535;-80
2021/09/29 06:13:03;;;;;;;0.73;0.50;;;14.60;99.90;;;;;;5032209;28;20203;-81
2021/09/29 06:15:31;;;;;;;1.88;0.60;;;14.70;99.90;;;;;;5032689;28;20167;-79
2021/09/29 06:18:02;;;;;;;0.73;0.63;;;14.70;99.90;;;;;;5032222;28;20168;-79
2021/09/29 06:20:32;;;;;;;1.63;0.75;;;14.70;99.90;;;;;;5031731;28;20214;-81
2021/09/29 06:22:58;;;;;;;1.85;0.60;;;14.60;99.90;;;;;;5032341;28;20230;-81
2021/09/29 06:25:24;;;;;;;1.35;0.50;;;14.70;99.90;;;;;;5032379;28;20171;-81
2021/09/29 06:27:50;;;;;;;0.85;0.60;;;14.60;99.90;;;;;;5032267;28;20258;-84
2021/09/29 06:30:16;;;;;;;2.05;0.70;;;14.70;99.90;;;;;;5031692;28;20582;-80
2021/09/29 06:32:42;;;;;;;1.08;0.80;;;14.50;99.90;;;;;;5030475;28;20555;-81
2021/09/29 06:35:08;;;;;;;3.55;1.00;;;14.30;99.90;;;;;;5031697;28;20175;-80
2021/09/29 06:37:39;;;;;;;9.05;0.60;;;14.30;99.90;;;;;;5032113;28;20247;-80
2021/09/29 06:40:18;;;;;;;1.00;0.63;;;14.10;99.90;;;;;;5031527;28;20217;-79
2021/09/29 06:42:44;;;;;;;2.47;0.50;;;14.00;99.90;;;;;;5031913;28;20168;-78
2021/09/29 06:45:11;;;;;;;1.45;0.60;;;14.00;99.90;;;;;;5032323;28;20699;-78
2021/09/29 06:47:40;;;;;;;0.93;0.60;;;14.30;99.90;;;;;;5031861;28;20179;-81
2021/09/29 06:50:08;;;;;;;2.20;0.68;;;14.40;99.90;;;;;;5032505;28;20184;-82
2021/09/29 06:52:34;;;;;;;1.52;0.50;;;14.30;99.90;;;;;;5032148;28;20182;-77
2021/09/29 06:54:59;;;;;;;2.10;0.70;;;14.30;99.90;;;;;;5032097;28;20204;-79
2021/09/29 06:57:25;;;;;;;0.55;0.45;;;14.40;99.90;;;;;;5032889;28;20168;-80
2021/09/29 06:59:51;;;;;;;1.35;0.68;;;14.30;99.90;;;;;;5032976;28;20199;-79
2021/09/29 07:02:16;;;;;;;1.10;0.70;;;14.30;99.90;;;;;;5032129;28;20198;-81
2021/09/29 07:04:42;;;;;;;1.80;0.80;;;14.20;99.90;;;;;;5035936;28;20219;-78
2021/09/29 07:07:08;;;;;;;3.17;1.00;;;14.30;99.90;;;;;;5035980;28;20172;-79
2021/09/29 07:09:33;;;;;;;1.55;0.60;;;14.30;99.90;;;;;;5034619;28;20196;-79
2021/09/29 07:11:59;;;;;;;2.92;0.63;;;14.30;99.90;;;;;;5035768;28;20238;-78
2021/09/29 07:14:26;;;;;;;0.50;0.50;;;14.50;99.90;;;;;;5034605;28;20199;-83
2021/09/29 07:16:52;;;;;;;4.80;1.00;;;14.40;99.90;;;;;;5035732;28;20195;-78
2021/09/29 07:19:18;;;;;;;5.88;0.70;;;14.30;99.90;;;;;;5036315;28;20192;-82
2021/09/29 07:21:43;;;;;;;2.30;0.60;;;14.30;99.90;;;;;;5036550;28;20171;-81
2021/09/29 07:24:09;;;;;;;1.27;0.60;;;14.10;99.90;;;;;;5037575;28;20273;-82
2021/09/29 07:26:35;;;;;;;1.67;0.80;;;14.10;99.90;;;;;;5036042;28;20183;-79
2021/09/29 07:29:02;;;;;;;1.60;0.90;;;14.30;99.90;;;;;;5035665;28;20188;-82
2021/09/29 07:31:30;;;;;;;1.58;1.20;;;14.50;99.90;;;;;;5035569;28;20156;-78
2021/09/29 07:33:56;;;;;;;1.13;0.70;;;14.50;99.90;;;;;;5035071;28;20234;-78
2021/09/29 07:36:21;;;;;;;1.98;0.70;;;14.60;99.90;;;;;;5035448;28;20516;-79
2021/09/29 07:38:47;;;;;;;0.82;0.80;;;14.60;99.90;;;;;;5034998;28;20184;-81
2021/09/29 07:41:13;;;;;;;1.65;0.70;;;14.40;99.90;;;;;;5034240;28;20160;-78
2021/09/29 07:43:39;;;;;;;1.02;0.70;;;14.50;99.90;;;;;;5034377;28;20164;-80
2021/09/29 07:46:05;;;;;;;7.00;0.65;;;14.60;99.90;;;;;;5033660;28;20628;-80
2021/09/29 07:48:31;;;;;;;3.83;0.65;;;14.70;99.90;;;;;;4996932;28;20585;-78
2021/09/29 07:50:57;;;;;;;1.58;0.73;;;14.70;99.90;;;;;;5011863;28;20169;-80
2021/09/29 07:53:25;;;;;;;3.63;0.60;;;14.90;99.90;;;;;;5013386;28;20740;-81
2021/09/29 07:55:53;;;;;;;1.48;0.60;;;14.80;99.90;;;;;;5013657;28;20180;-82
2021/09/29 07:58:19;;;;;;;1.75;0.60;;;14.80;99.90;;;;;;5024944;28;20198;-82
2021/09/29 08:00:44;;;;;;;1.25;0.50;;;14.70;99.90;;;;;;5033361;28;20168;-81
2021/09/29 08:03:10;;;;;;;1.00;0.73;;;14.70;99.90;;;;;;5016911;28;20172;-81
2021/09/29 08:05:36;;;;;;;0.90;0.50;;;14.60;99.90;;;;;;5013575;28;20222;-81
2021/09/29 08:08:02;;;;;;;2.25;0.52;;;14.60;99.90;;;;;;5024943;28;20203;-76
2021/09/29 08:10:27;;;;;;;0.95;0.70;;;14.60;99.90;;;;;;5010260;28;20181;-81
2021/09/29 08:12:53;;;;;;;1.88;0.70;;;14.70;99.90;;;;;;4994178;28;20618;-83
2021/09/29 08:15:19;;;;;;;2.90;0.70;;;14.90;99.90;;;;;;4993471;28;20693;-80
2021/09/29 08:17:46;;;;;;;1.23;0.77;;;15.00;99.90;;;;;;5010335;28;20255;-82
2021/09/29 08:20:15;;;;;;;6.22;1.38;;;14.80;99.90;;;;;;5019888;28;20205;-81
2021/09/29 08:22:43;;;;;;;0.85;0.73;;;15.00;99.90;;;;;;5011962;28;20176;-83
2021/09/29 08:25:18;;;;;;;1.25;0.82;;;15.00;99.90;;;;;;5013637;28;20199;-83
2021/09/29 08:35:26;;;;;;;2.00;1.30;;;14.70;99.90;;;;;;4995845;28;20203;-80
2021/09/29 08:38:10;;;;;;;3.42;1.63;;;14.90;99.90;;;;;;5012248;28;20164;-79
2021/09/29 08:45:55;;;;;;;3.30;1.73;;;14.80;99.90;;;;;;5026331;28;20298;-81
2021/09/29 08:48:42;;;;;;;1.88;1.77;;;14.60;99.90;;;;;;5032014;28;20236;-79
2021/09/29 08:51:34;;;;;;;12.43;1.90;;;14.60;99.90;;;;;;5012454;28;20200;-81
2021/09/29 09:16:06;;;;;;;2.47;1.83;;;15.80;99.90;;;;;;5031763;28;20222;-83
2021/09/29 09:18:32;;;;;;;3.40;1.45;;;15.90;99.90;;;;;;5030922;28;20203;-82
2021/09/29 09:21:06;;;;;;;1.90;1.52;;;15.70;99.90;;;;;;5012851;28;20723;-80
2021/09/29 09:23:42;;;;;;;1.98;1.75;;;15.60;99.90;;;;;;5011912;28;20621;-82
2021/09/29 09:26:18;;;;;;;5.88;2.80;;;15.60;99.90;;;;;;5011484;28;20165;-81
2021/09/29 09:28:44;;;;;;;2.90;1.95;;;15.60;99.90;;;;;;5028102;28;20230;-82
2021/09/29 09:31:16;;;;;;;5.32;2.30;;;15.80;99.90;;;;;;5012084;28;20711;-81
2021/09/29 09:34:05;;;;;;;2.15;1.95;;;16.00;99.90;;;;;;5011468;28;20672;-80
2021/09/29 09:36:50;;;;;;;2.90;2.00;;;15.90;99.90;;;;;;5011873;28;20255;-79
2021/09/29 09:39:22;;;;;;;2.65;1.52;;;15.80;99.90;;;;;;5032184;28;20291;-79
2021/09/29 09:41:51;;;;;;;1.92;1.70;;;15.70;99.90;;;;;;5032245;28;20168;-77
2021/09/29 09:44:22;;;;;;;5.38;1.73;;;15.70;99.90;;;;;;5030611;28;20267;-77
2021/09/29 09:47:07;;;;;;;3.38;1.95;;;16.00;99.90;;;;;;5025141;28;20259;-78
2021/09/29 09:49:46;;;;;;;4.10;1.75;;;16.10;99.90;;;;;;4992584;28;20197;-78
2021/09/29 09:52:12;;;;;;;3.00;1.67;;;15.90;99.90;;;;;;4991188;28;20165;-81
2021/09/29 09:54:39;;;;;;;4.75;2.30;;;16.00;99.90;;;;;;4991741;28;20235;-78
2021/09/29 09:57:19;;;;;;;5.10;1.65;;;16.10;99.90;;;;;;5001958;28;20225;-78
2021/09/29 09:59:51;;;;;;;2.70;1.55;;;16.30;99.90;;;;;;5030910;28;20195;-77
2021/09/29 10:02:18;;;;;;;1.50;1.40;;;16.30;99.90;;;;;;5030568;28;20206;-79
2021/09/29 10:04:45;;;;;;;4.03;1.08;;;16.40;99.90;;;;;;5030875;28;20177;-79
2021/09/29 10:07:11;;;;;;;5.03;1.55;;;16.30;99.90;;;;;;5011626;28;20179;-79
2021/09/29 10:12:22;;;;;;;5.13;1.40;;;16.50;99.90;;;;;;5011052;28;20191;-82
2021/09/29 10:23:24;;;;;;;1.45;1.27;;;16.20;99.90;;;;;;5011781;28;20215;-86
2021/09/29 10:28:40;;;;;;;1.27;1.00;;;16.60;99.90;;;;;;5013625;28;20200;-86
2021/09/29 10:33:45;;;;;;;5.43;1.35;;;16.90;99.90;;;;;;5012229;28;20215;-85
2021/09/29 10:42:07;;;;;;;0.70;0.70;;;13.70;99.90;;;;;;5016749;28;20219;-84
2021/09/29 10:47:39;;;;;;;3.65;0.80;;;13.20;99.90;;;;;;5017024;28;20172;-86
2021/09/29 10:51:09;;;;;;;0.77;0.70;;;13.30;99.90;;;;;;5016420;28;20195;-85
2021/09/29 11:32:45;;;;;;;9.65;3.17;;;13.00;99.90;;;;;;5019542;28;20220;-83
2021/09/29 11:38:21;;;;;;;5.63;1.17;;;13.30;99.90;;;;;;4999887;28;20173;-85
2021/09/29 12:08:35;;;;;;;8.52;4.95;;;14.50;99.90;;;;;;5017040;28;20287;-79
2021/09/29 12:11:09;;;;;;;2.72;1.48;;;14.40;99.90;;;;;;5018466;28;20251;-84
2021/09/29 12:14:01;;;;;;;3.55;1.08;;;14.30;99.90;;;;;;5022123;28;20712;-90
2021/09/29 12:16:35;;;;;;;4.13;1.00;;;14.20;99.90;;;;;;5021254;28;20514;-88
2021/09/29 12:19:08;;;;;;;4.72;1.35;;;14.20;99.90;;;;;;5017062;28;20215;-89
2021/09/29 12:21:50;;;;;;;6.15;1.08;;;14.20;99.90;;;;;;5016511;28;20531;-86
2021/09/29 12:24:34;;;;;;;4.20;1.42;;;14.30;99.90;;;;;;5014958;28;20203;-81
2021/09/29 12:27:01;;;;;;;5.18;1.10;;;14.40;99.90;;;;;;5015079;28;20679;-83
2021/09/29 12:29:34;;;;;;;3.03;1.13;;;14.50;99.90;;;;;;5015357;28;20289;-80
2021/09/29 12:37:59;;;;;;;4.93;4.43;;;14.80;99.90;;;;;;5015993;28;20658;-83
2021/09/29 12:40:28;;;;;;;8.57;3.50;;;15.00;99.90;;;;;;5008021;28;20188;-80
2021/09/29 12:42:59;;;;;;;4.93;1.90;;;15.00;99.90;;;;;;5026629;28;20176;-92
2021/09/29 12:45:27;;;;;;;3.38;1.20;;;14.70;99.90;;;;;;5034007;28;20163;-88
2021/09/29 12:47:53;;;;;;;2.60;1.13;;;14.30;99.90;;;;;;5034079;28;20168;-81
2021/09/29 12:50:22;;;;;;;4.50;0.95;;;14.00;99.90;;;;;;5027751;28;20258;-84
2021/09/29 12:55:43;;;;;;;3.92;1.20;;;13.90;99.90;;;;;;4997297;28;20271;-82
2021/09/29 12:58:09;;;;;;;1.10;0.60;;;13.90;99.90;;;;;;5010757;28;20250;-82
2021/09/29 13:00:35;;;;;;;0.88;0.52;;;14.00;99.90;;;;;;5011761;28;20625;-82
2021/09/29 13:03:02;;;;;;;2.05;0.63;;;14.00;99.90;;;;;;5030996;28;20183;-81
2021/09/29 13:05:28;;;;;;;2.65;0.60;;;14.10;99.90;;;;;;5031513;28;20167;-82
2021/09/29 13:07:54;;;;;;;0.95;0.70;;;14.20;99.90;;;;;;5031466;28;20587;-80
2021/09/29 13:10:20;;;;;;;2.70;0.85;;;14.40;99.90;;;;;;5025617;28;20286;-83
2021/09/29 13:12:45;;;;;;;1.15;0.70;;;14.60;99.90;;;;;;5013428;28;20208;-85
2021/09/29 13:15:12;;;;;;;1.75;0.70;;;14.70;99.90;;;;;;5011083;28;20240;-82
2021/09/29 13:17:38;;;;;;;3.03;0.50;;;14.80;99.90;;;;;;5011221;28;20188;-82
2021/09/29 13:20:07;;;;;;;2.20;1.65;;;14.80;99.90;;;;;;5010802;28;20220;-80
2021/09/29 13:22:36;;;;;;;3.00;0.50;;;14.70;99.90;;;;;;5010998;28;20518;-80
2021/09/29 13:25:21;;;;;;;0.75;0.60;;;14.70;99.90;;;;;;5011210;28;20184;-83
2021/09/29 13:38:26;;;;;;;2.85;1.20;;;14.50;99.90;;;;;;5013250;28;20204;-87
2021/09/29 13:40:52;;;;;;;5.80;1.52;;;14.60;99.90;;;;;;5011889;28;20211;-82
2021/09/29 13:43:18;;;;;;;1.83;0.98;;;14.70;99.90;;;;;;5011439;28;20204;-80
2021/09/29 13:45:43;;;;;;;1.83;0.80;;;14.80;99.90;;;;;;5013174;28;20176;-80
2021/09/29 13:48:09;;;;;;;3.70;1.02;;;15.00;99.90;;;;;;5012963;28;20172;-81
2021/09/29 13:50:34;;;;;;;5.35;1.85;;;15.00;99.90;;;;;;5013368;28;20255;-85
2021/09/29 13:53:01;;;;;;;0.98;0.88;;;15.20;99.90;;;;;;5012066;28;20185;-84
2021/09/29 13:55:29;;;;;;;3.63;1.20;;;15.10;99.90;;;;;;5012727;28;20664;-80
2021/09/29 13:58:04;;;;;;;1.73;1.48;;;15.00;99.90;;;;;;5012057;28;20218;-83
2021/09/29 14:30:14;;;;;;;2.10;0.88;;;15.30;99.90;;;;;;5013342;28;20607;-79
2021/09/29 14:33:02;;;;;;;7.70;2.17;;;15.40;99.90;;;;;;5012704;28;20188;-79
2021/09/29 14:35:28;;;;;;;2.22;0.60;;;15.50;99.90;;;;;;5011306;28;20177;-79
2021/09/29 14:37:54;;;;;;;2.22;0.70;;;15.50;99.90;;;;;;5012932;28;20172;-78
2021/09/29 14:40:20;;;;;;;3.33;1.17;;;15.40;99.90;;;;;;5011282;28;20196;-78
2021/09/29 14:42:46;;;;;;;2.58;1.23;;;15.40;99.90;;;;;;5012859;28;20218;-78
2021/09/29 14:45:12;;;;;;;4.63;1.10;;;15.30;99.90;;;;;;5012818;28;20248;-78
2021/09/29 14:47:38;;;;;;;2.45;0.82;;;15.10;99.90;;;;;;5012385;28;20208;-78
2021/09/29 14:50:05;;;;;;;1.70;0.90;;;15.00;99.90;;;;;;5011171;28;20656;-78
2021/09/29 14:52:31;;;;;;;1.90;0.75;;;14.80;99.90;;;;;;5011261;28;20187;-79
2021/09/29 14:54:56;;;;;;;1.42;0.80;;;14.90;99.90;;;;;;5012627;28;20212;-78
2021/09/29 14:57:22;;;;;;;2.92;0.85;;;14.90;99.90;;;;;;5011121;28;20168;-78
2021/09/29 14:59:47;;;;;;;2.15;1.10;;;14.90;99.90;;;;;;5010780;28;20307;-78
2021/09/29 15:02:14;;;;;;;3.67;0.93;;;15.00;99.90;;;;;;5010644;28;20172;-81
2021/09/29 15:04:40;;;;;;;1.13;0.90;;;15.20;99.90;;;;;;5010996;28;20180;-81
2021/09/29 15:07:06;;;;;;;3.30;1.33;;;15.50;99.90;;;;;;5011066;28;20589;-82
2021/09/29 15:09:32;;;;;;;6.32;1.00;;;15.60;99.90;;;;;;5012401;28;20234;-80
2021/09/29 15:11:58;;;;;;;1.80;0.90;;;15.70;99.90;;;;;;5012442;28;20168;-82
2021/09/29 15:22:07;;;;;;;3.85;1.60;;;15.40;99.90;;;;;;5012667;28;20580;-78
2021/09/29 15:48:56;;;;;;;5.28;2.85;;;14.90;99.90;;;;;;5025659;28;20218;-78
2021/09/29 15:51:30;;;;;;;8.75;1.27;;;14.80;99.90;;;;;;5014806;28;20160;-77
2021/09/29 16:04:20;;;;;;;2.67;0.90;;;14.50;99.90;;;;;;5033611;28;20593;-79
2021/09/29 16:30:45;;;;;;;4.25;1.60;;;14.60;99.90;;;;;;5014444;28;20176;-80
2021/09/29 16:35:49;;;;;;;4.45;0.95;;;14.80;99.90;;;;;;5033681;28;20172;-81
2021/09/29 16:38:15;;;;;;;5.68;0.98;;;14.70;99.90;;;;;;5032544;28;20182;-78
2021/09/29 16:40:41;;;;;;;2.00;0.80;;;14.70;99.90;;;;;;5018948;28;20180;-78
2021/09/29 16:43:07;;;;;;;4.00;1.42;;;14.60;99.90;;;;;;5012691;28;20184;-81
2021/09/29 16:45:34;;;;;;;6.50;1.60;;;14.40;99.90;;;;;;5014166;28;20169;-79
2021/09/29 16:47:59;;;;;;;8.43;1.60;;;14.40;99.90;;;;;;5014380;28;20191;-81
2021/09/29 16:50:33;;;;;;;3.63;1.73;;;14.30;99.90;;;;;;5023606;28;20624;-79
2021/09/29 16:53:07;;;;;;;4.88;2.75;;;14.30;99.90;;;;;;5033847;28;20171;-81
2021/09/29 16:55:33;;;;;;;11.80;7.18;;;14.20;99.90;;;;;;5033162;28;20228;-79
2021/09/29 16:58:22;;;;;;;4.75;3.28;;;14.30;99.90;;;;;;5033543;28;20174;-78
2021/09/29 17:01:07;;;;;;;2.45;1.70;;;14.20;99.90;;;;;;5033177;28;20811;-77